OYMEC VNLK-VNLK
Flight info
| Callsign | OYMEC |
|---|---|
| Flight time | N/A |
| Altitude | 7500 |
| Route | DCT |
| Aircraft | C172/L-VGD/C |
Departure
| Time | 2025-06-10 08:23 |
|---|---|
| Airport | Tenzing-Hillary Airport (VNLK) |
Arrival
| Time | N/A |
|---|---|
| Airport | Tenzing-Hillary Airport (VNLK) |
| Time | Latitude | Longitude | Altitude | Speed | Heading |
|---|---|---|---|---|---|
| 2025-06-10 08:13 | 27.68733 | 86.73169 | 9397 ft | 0 kts | 248° |
| 2025-06-10 08:15 | 27.68789 | 86.73174 | 9395 ft | 6 kts | 70° |
| 2025-06-10 08:16 | 27.68797 | 86.73173 | 9395 ft | 0 kts | 227° |
| 2025-06-10 08:17 | 27.68783 | 86.73150 | 9393 ft | 16 kts | 235° |
| 2025-06-10 08:18 | 27.67989 | 86.71561 | 9215 ft | 101 kts | 254° |
| 2025-06-10 08:18 | 27.68485 | 86.70477 | 9376 ft | 96 kts | 358° |
| 2025-06-10 08:19 | 27.68581 | 86.71799 | 9152 ft | 106 kts | 150° |
| 2025-06-10 08:19 | 27.67881 | 86.71992 | 9208 ft | 106 kts | 183° |
| 2025-06-10 08:19 | 27.66515 | 86.71572 | 9006 ft | 114 kts | 220° |
| 2025-06-10 08:20 | 27.65748 | 86.70212 | 9186 ft | 105 kts | 217° |
| 2025-06-10 08:20 | 27.65953 | 86.69052 | 9354 ft | 122 kts | 352° |
| 2025-06-10 08:21 | 27.67177 | 86.69921 | 9708 ft | 105 kts | 30° |
| 2025-06-10 08:21 | 27.68566 | 86.70260 | 10010 ft | 101 kts | 352° |
| 2025-06-10 08:22 | 27.70652 | 86.70460 | 10080 ft | 107 kts | 11° |
| 2025-06-10 08:22 | 27.71390 | 86.70529 | 10184 ft | 103 kts | 1° |
| 2025-06-10 08:23 | 27.73429 | 86.70560 | 10094 ft | 101 kts | 2° |
| 2025-06-10 08:24 | 27.74713 | 86.70633 | 10450 ft | 85 kts | 8° |
| 2025-06-10 08:24 | 27.75295 | 86.70773 | 10444 ft | 92 kts | 15° |
| 2025-06-10 08:24 | 27.76513 | 86.71031 | 10579 ft | 99 kts | 23° |
| 2025-06-10 08:25 | 27.77525 | 86.71775 | 10806 ft | 92 kts | 3° |
| 2025-06-10 08:25 | 27.78678 | 86.71512 | 10953 ft | 85 kts | 330° |
| 2025-06-10 08:26 | 27.79163 | 86.71658 | 10852 ft | 82 kts | 142° |
| 2025-06-10 08:26 | 27.78749 | 86.72047 | 10953 ft | 84 kts | 155° |
| 2025-06-10 08:27 | 27.77105 | 86.71923 | 11241 ft | 78 kts | 180° |
| 2025-06-10 08:28 | 27.77043 | 86.72831 | 11304 ft | 96 kts | 12° |
| 2025-06-10 08:28 | 27.78293 | 86.72677 | 11539 ft | 89 kts | 346° |
| 2025-06-10 08:29 | 27.77771 | 86.72207 | 11608 ft | 88 kts | 161° |
| 2025-06-10 08:29 | 27.76659 | 86.72378 | 11872 ft | 82 kts | 194° |
| 2025-06-10 08:30 | 27.75776 | 86.72176 | 11937 ft | 85 kts | 194° |
| 2025-06-10 08:30 | 27.74639 | 86.72210 | 12180 ft | 81 kts | 175° |
| 2025-06-10 08:31 | 27.73552 | 86.72040 | 12295 ft | 78 kts | 202° |
| 2025-06-10 08:31 | 27.72677 | 86.71301 | 12490 ft | 80 kts | 226° |
| 2025-06-10 08:32 | 27.71618 | 86.70661 | 12413 ft | 103 kts | 200° |
| 2025-06-10 08:32 | 27.70978 | 86.70421 | 12499 ft | 95 kts | 198° |